createdAt,value
2016-08-04T00:00:59.868Z,0
2016-08-04T00:01:58.604Z,0
2016-08-04T00:02:58.203Z,0
2016-08-04T00:03:58.893Z,0
2016-08-04T00:04:58.173Z,0
2016-08-04T00:05:58.896Z,0
2016-08-04T00:06:59.603Z,0
2016-08-04T00:07:58.904Z,0
2016-08-04T00:08:58.903Z,0
2016-08-04T00:09:58.202Z,0
2016-08-04T00:10:58.219Z,0
2016-08-04T00:11:57.515Z,0
2016-08-04T00:12:59.523Z,0
2016-08-04T00:13:58.223Z,0
2016-08-04T00:14:58.383Z,0
2016-08-04T00:15:59.647Z,0
2016-08-04T00:16:59.004Z,0
2016-08-04T00:17:57.545Z,0
2016-08-04T00:18:58.253Z,0
2016-08-04T00:19:56.912Z,0
2016-08-04T00:20:57.563Z,0
2016-08-04T00:21:59.950Z,0
2016-08-04T00:22:58.277Z,0
2016-08-04T00:23:59.854Z,0
2016-08-04T00:24:59.750Z,0
2016-08-04T00:25:59.397Z,0
2016-08-04T00:26:57.588Z,0
2016-08-04T00:27:58.299Z,0
2016-08-04T00:28:59.046Z,0
2016-08-04T00:29:57.605Z,0
2016-08-04T00:30:59.735Z,0
2016-08-04T00:31:59.029Z,0
2016-08-04T00:32:58.523Z,0
2016-08-04T00:33:59.055Z,0
2016-08-04T00:34:57.646Z,0
2016-08-04T00:35:58.343Z,0
2016-08-04T00:37:00.164Z,0
2016-08-04T00:37:59.776Z,0
2016-08-04T00:38:58.369Z,0
2016-08-04T00:39:59.072Z,0
2016-08-04T00:40:59.082Z,0
2016-08-04T00:41:58.371Z,0
2016-08-04T00:42:59.132Z,0
2016-08-04T00:43:59.085Z,0
2016-08-04T00:44:59.150Z,0
2016-08-04T00:45:59.155Z,0
2016-08-04T00:46:58.449Z,0
2016-08-04T00:47:57.695Z,0
2016-08-04T00:48:58.411Z,0
2016-08-04T00:49:57.705Z,0
2016-08-04T00:50:59.143Z,0
2016-08-04T00:51:58.437Z,0
2016-08-04T00:52:57.722Z,0
2016-08-04T00:53:59.149Z,0
2016-08-04T00:55:00.197Z,0
2016-08-04T00:55:57.744Z,0
2016-08-04T00:56:59.813Z,0
2016-08-04T00:57:57.039Z,0
2016-08-04T00:58:58.268Z,0
2016-08-04T00:59:58.465Z,0
2016-08-04T01:00:59.179Z,0
2016-08-04T01:01:59.893Z,0
2016-08-04T01:02:58.479Z,0
2016-08-04T01:03:58.486Z,0
2016-08-04T01:04:59.912Z,0
2016-08-04T01:06:00.871Z,0
2016-08-04T01:06:57.090Z,0
2016-08-04T01:07:59.159Z,0
2016-08-04T01:08:59.217Z,0
2016-08-04T01:10:00.902Z,0
2016-08-04T01:10:59.229Z,0
2016-08-04T01:11:59.236Z,0
2016-08-04T01:12:59.241Z,0
2016-08-04T01:13:57.828Z,0
2016-08-04T01:14:57.845Z,0
2016-08-04T01:15:59.258Z,0
2016-08-04T01:16:57.863Z,0
2016-08-04T01:17:57.157Z,0
2016-08-04T01:19:00.312Z,0
2016-08-04T01:19:57.444Z,0
2016-08-04T01:20:59.994Z,0
2016-08-04T01:21:59.278Z,0
2016-08-04T01:22:59.289Z,0
2016-08-04T01:23:59.297Z,0
2016-08-04T01:24:58.643Z,0
2016-08-04T01:25:58.597Z,0
2016-08-04T01:26:58.615Z,0
2016-08-04T01:27:58.154Z,0
2016-08-04T01:28:58.606Z,0
2016-08-04T01:29:57.909Z,0
2016-08-04T01:30:59.327Z,0
2016-08-04T01:31:59.857Z,0
2016-08-04T01:32:58.628Z,0
2016-08-04T01:33:59.339Z,0
2016-08-04T01:35:57.242Z,0
2016-08-04T01:36:57.944Z,0
2016-08-04T01:37:58.655Z,0
2016-08-04T01:38:58.801Z,0
2016-08-04T01:39:58.668Z,0
2016-08-04T01:40:58.667Z,0
2016-08-04T01:41:58.680Z,0
2016-08-04T01:43:00.393Z,0
2016-08-04T01:43:58.729Z,0
2016-08-04T01:45:00.100Z,0
2016-08-04T01:45:59.404Z,0
2016-08-04T01:47:00.312Z,0
2016-08-04T01:47:59.709Z,0
2016-08-04T01:48:58.804Z,0
2016-08-04T01:50:59.575Z,0
2016-08-04T01:51:59.624Z,0
2016-08-04T01:52:59.438Z,0
2016-08-04T01:53:58.732Z,0
2016-08-04T01:54:58.735Z,0
2016-08-04T01:55:57.325Z,0
2016-08-04T01:57:00.159Z,0
2016-08-04T01:57:58.749Z,0
2016-08-04T01:58:59.466Z,0
2016-08-04T01:59:59.466Z,0
2016-08-04T02:01:00.232Z,0
2016-08-04T02:01:58.769Z,0
2016-08-04T02:03:02.109Z,0
2016-08-04T02:03:58.089Z,0
2016-08-04T02:05:58.797Z,0
2016-08-04T02:06:58.794Z,0
2016-08-04T02:08:00.211Z,0
2016-08-04T02:08:58.805Z,0
2016-08-04T02:09:59.523Z,0
2016-08-04T02:10:58.863Z,0
2016-08-04T02:11:58.759Z,0
2016-08-04T02:12:58.819Z,0
2016-08-04T02:14:00.736Z,0
2016-08-04T02:14:58.841Z,0
2016-08-04T02:15:59.540Z,0
2016-08-04T02:16:58.849Z,0
2016-08-04T02:18:00.262Z,0
2016-08-04T02:18:58.854Z,0
2016-08-04T02:19:59.620Z,0
2016-08-04T02:20:58.160Z,0
2016-08-04T02:22:00.287Z,0
2016-08-04T02:22:59.770Z,0
2016-08-04T02:23:58.877Z,0
2016-08-04T02:24:59.289Z,0
2016-08-04T02:25:59.607Z,0
2016-08-04T02:26:59.597Z,0
2016-08-04T02:27:59.650Z,0
2016-08-04T02:28:58.204Z,0
2016-08-04T02:29:58.205Z,0
2016-08-04T02:30:58.208Z,0
2016-08-04T02:31:58.912Z,0
2016-08-04T02:33:00.337Z,0
2016-08-04T02:34:00.294Z,0
2016-08-04T02:34:59.640Z,0
2016-08-04T02:36:00.497Z,0
2016-08-04T02:36:57.528Z,0
2016-08-04T02:37:59.648Z,0
2016-08-04T02:38:58.962Z,0
2016-08-04T02:39:59.660Z,0
2016-08-04T02:40:58.966Z,0
2016-08-04T02:41:58.968Z,0
2016-08-04T02:42:59.673Z,0
2016-08-04T02:43:59.730Z,0
2016-08-04T02:45:01.434Z,0
2016-08-04T02:45:59.992Z,0
2016-08-04T02:46:59.812Z,0
2016-08-04T02:47:58.992Z,0
2016-08-04T02:48:59.002Z,0
2016-08-04T02:50:00.419Z,0
2016-08-04T02:50:59.014Z,0
2016-08-04T02:51:58.307Z,0
2016-08-04T02:52:59.742Z,0
2016-08-04T02:53:59.933Z,0
2016-08-04T02:54:58.329Z,0
2016-08-04T02:55:59.037Z,0
2016-08-04T02:57:00.041Z,0
2016-08-04T02:58:00.705Z,0
2016-08-04T02:58:58.347Z,0
2016-08-04T02:59:59.056Z,0
2016-08-04T03:01:01.075Z,0
2016-08-04T03:01:59.122Z,0
2016-08-04T03:02:59.785Z,0
2016-08-04T03:03:58.369Z,0
2016-08-04T03:04:59.731Z,0
2016-08-04T03:05:59.787Z,0
2016-08-04T03:06:59.088Z,0
2016-08-04T03:07:59.094Z,0
2016-08-04T03:08:58.535Z,0
2016-08-04T03:10:00.519Z,0
2016-08-04T03:11:00.520Z,0
2016-08-04T03:11:59.111Z,0
2016-08-04T03:12:59.115Z,0
2016-08-04T03:13:59.829Z,0
2016-08-04T03:14:58.427Z,0
2016-08-04T03:16:01.494Z,0
2016-08-04T03:16:59.144Z,0
2016-08-04T03:17:59.896Z,0
2016-08-04T03:18:59.852Z,0
2016-08-04T03:20:00.836Z,0
2016-08-04T03:20:59.864Z,0
2016-08-04T03:21:59.865Z,0
2016-08-04T03:22:59.878Z,0
2016-08-04T03:23:59.177Z,0
2016-08-04T03:24:59.935Z,0
2016-08-04T03:25:59.887Z,0
2016-08-04T03:26:58.500Z,0
2016-08-04T03:27:58.823Z,0
2016-08-04T03:28:59.798Z,0
2016-08-04T03:29:59.906Z,0
2016-08-04T03:31:00.062Z,0
2016-08-04T03:31:58.504Z,0
2016-08-04T03:32:59.919Z,0
2016-08-04T03:33:58.507Z,0
2016-08-04T03:34:59.930Z,0
2016-08-04T03:35:59.225Z,0
2016-08-04T03:36:59.236Z,0
2016-08-04T03:37:58.536Z,0
2016-08-04T03:38:59.238Z,0
2016-08-04T03:40:00.301Z,0
2016-08-04T03:40:59.957Z,0
2016-08-04T03:41:59.959Z,0
2016-08-04T03:42:59.969Z,0
2016-08-04T03:43:59.271Z,0
2016-08-04T03:44:58.571Z,0
2016-08-04T03:45:58.568Z,0
2016-08-04T03:47:00.040Z,0
2016-08-04T03:47:59.289Z,0
2016-08-04T03:49:00.242Z,0
2016-08-04T03:49:59.291Z,0
2016-08-04T03:51:00.615Z,0
2016-08-04T03:52:00.724Z,0
2016-08-04T03:53:00.362Z,0
2016-08-04T03:53:59.310Z,0
2016-08-04T03:54:58.611Z,0
2016-08-04T03:55:59.320Z,0
2016-08-04T03:56:59.328Z,0
2016-08-04T03:58:00.043Z,0
2016-08-04T03:59:00.752Z,0
2016-08-04T03:59:59.987Z,0
2016-08-04T04:00:59.360Z,0
2016-08-04T04:01:59.399Z,0
2016-08-04T04:03:00.065Z,0
2016-08-04T04:03:58.708Z,0
2016-08-04T04:04:59.362Z,0
2016-08-04T04:05:58.667Z,0
2016-08-04T04:06:58.667Z,0
2016-08-04T04:07:59.383Z,0
2016-08-04T04:08:57.973Z,0
2016-08-04T04:10:00.099Z,0
2016-08-04T04:10:59.955Z,0
2016-08-04T04:11:59.401Z,5
2016-08-04T04:13:00.316Z,5
2016-08-04T04:13:59.421Z,5
2016-08-04T04:15:01.707Z,5
2016-08-04T04:15:59.420Z,5
2016-08-04T04:16:58.715Z,5
2016-08-04T04:17:59.425Z,5
2016-08-04T04:18:59.480Z,5
2016-08-04T04:20:00.149Z,5
2016-08-04T04:20:59.444Z,5
2016-08-04T04:22:01.262Z,10
2016-08-04T04:22:59.453Z,10
2016-08-04T04:24:00.402Z,10
2016-08-04T04:25:00.170Z,10
2016-08-04T04:25:59.909Z,10
2016-08-04T04:26:59.469Z,10
2016-08-04T04:28:00.181Z,10
2016-08-04T04:28:59.528Z,10
2016-08-04T04:29:58.772Z,10
2016-08-04T04:31:00.209Z,15
2016-08-04T04:31:59.498Z,15
2016-08-04T04:33:01.756Z,15
2016-08-04T04:34:00.212Z,15
2016-08-04T04:35:00.883Z,15
2016-08-04T04:35:58.823Z,15
2016-08-04T04:36:59.869Z,20
2016-08-04T04:37:59.532Z,20
2016-08-04T04:39:00.234Z,20
2016-08-04T04:40:00.241Z,20
2016-08-04T04:41:00.245Z,20
2016-08-04T04:41:59.546Z,25
2016-08-04T04:42:59.551Z,25
2016-08-04T04:43:59.604Z,35
2016-08-04T04:44:58.848Z,55
2016-08-04T04:46:01.583Z,50
2016-08-04T04:47:00.331Z,45
2016-08-04T04:48:00.533Z,45
2016-08-04T04:49:00.992Z,40
2016-08-04T04:49:59.581Z,40
2016-08-04T04:51:00.297Z,40
2016-08-04T04:51:59.645Z,45
2016-08-04T04:52:58.890Z,45
2016-08-04T04:53:59.605Z,50
2016-08-04T04:55:14.484Z,85
2016-08-04T04:55:58.902Z,100
2016-08-04T04:57:00.335Z,135
2016-08-04T04:57:58.920Z,145
2016-08-04T04:58:59.628Z,85
2016-08-04T05:00:00.339Z,90
2016-08-04T05:01:00.348Z,170
2016-08-04T05:01:59.640Z,230
2016-08-04T05:02:58.944Z,200
2016-08-04T05:03:59.651Z,155
2016-08-04T05:04:59.655Z,235
2016-08-04T05:05:59.430Z,255
2016-08-04T05:06:59.676Z,250
2016-08-04T05:08:01.192Z,245
2016-08-04T05:08:58.987Z,275
2016-08-04T05:10:00.184Z,175
2016-08-04T05:11:00.396Z,295
2016-08-04T05:12:01.116Z,300
2016-08-04T05:13:00.408Z,135
2016-08-04T05:13:59.710Z,295
2016-08-04T05:15:01.131Z,265
2016-08-04T05:15:59.725Z,285
2016-08-04T05:16:59.720Z,275
2016-08-04T05:18:01.149Z,245
2016-08-04T05:19:01.734Z,310
2016-08-04T05:19:58.331Z,315
2016-08-04T05:20:58.630Z,270
2016-08-04T05:22:00.461Z,220
2016-08-04T05:23:00.474Z,180
2016-08-04T05:24:00.472Z,150
2016-08-04T05:25:01.206Z,185
2016-08-04T05:26:00.488Z,175
2016-08-04T05:26:59.849Z,115
2016-08-04T05:28:00.440Z,110
2016-08-04T05:28:59.909Z,95
2016-08-04T05:30:01.782Z,80
2016-08-04T05:30:59.815Z,100
2016-08-04T05:32:01.386Z,130
2016-08-04T05:32:59.823Z,175
2016-08-04T05:34:01.250Z,160
2016-08-04T05:34:59.126Z,125
2016-08-04T05:37:00.557Z,130
2016-08-04T05:38:00.570Z,140
2016-08-04T05:39:00.520Z,210
2016-08-04T05:40:00.590Z,265
2016-08-04T05:41:00.837Z,255
2016-08-04T05:42:00.592Z,295
2016-08-04T05:43:00.592Z,370
2016-08-04T05:43:59.186Z,450
2016-08-04T05:44:59.893Z,470
2016-08-04T05:46:00.620Z,465
2016-08-04T05:47:00.665Z,375
2016-08-04T05:47:59.283Z,260
2016-08-04T05:48:59.922Z,170
2016-08-04T05:50:02.109Z,155
2016-08-04T05:50:59.928Z,175
2016-08-04T05:52:01.050Z,120
2016-08-04T05:52:59.949Z,220
2016-08-04T05:54:00.664Z,170
2016-08-04T05:54:59.303Z,205
2016-08-04T05:56:00.675Z,230
2016-08-04T05:56:59.974Z,200
2016-08-04T05:57:59.281Z,135
2016-08-04T05:58:58.777Z,90
2016-08-04T06:00:01.908Z,70
2016-08-04T06:00:59.440Z,55
2016-08-04T06:02:01.519Z,60
2016-08-04T06:03:01.321Z,55
2016-08-04T06:04:00.727Z,45
2016-08-04T06:04:59.420Z,45
2016-08-04T06:06:00.177Z,35
2016-08-04T06:06:59.324Z,30
2016-08-04T06:08:01.459Z,30
2016-08-04T06:08:59.341Z,30
2016-08-04T06:10:01.471Z,30
2016-08-04T06:10:58.846Z,30
2016-08-04T06:12:01.956Z,30
2016-08-04T06:13:00.070Z,35
2016-08-04T06:14:01.610Z,40
2016-08-04T06:15:00.783Z,55
2016-08-04T06:16:00.084Z,65
2016-08-04T06:17:00.797Z,85
2016-08-04T06:18:00.102Z,85
2016-08-04T06:19:00.839Z,115
2016-08-04T06:20:00.157Z,175
2016-08-04T06:21:00.127Z,170
2016-08-04T06:22:00.832Z,260
2016-08-04T06:23:00.165Z,235
2016-08-04T06:24:00.848Z,320
2016-08-04T06:25:02.398Z,100
2016-08-04T06:26:01.549Z,120
2016-08-04T06:27:00.153Z,135
2016-08-04T06:28:00.226Z,140
2016-08-04T06:29:00.869Z,135
2016-08-04T06:30:00.167Z,90
2016-08-04T06:30:58.760Z,115
2016-08-04T06:32:00.884Z,110
2016-08-04T06:32:59.538Z,155
2016-08-04T06:34:01.090Z,125
2016-08-04T06:35:00.899Z,100
2016-08-04T06:36:01.753Z,80
2016-08-04T06:36:59.599Z,80
2016-08-04T06:38:01.115Z,85
2016-08-04T06:39:01.736Z,100
2016-08-04T06:40:00.420Z,100
2016-08-04T06:41:00.424Z,95
2016-08-04T06:42:01.797Z,85
2016-08-04T06:43:01.144Z,85
2016-08-04T06:44:00.341Z,95
2016-08-04T06:45:03.455Z,110
2016-08-04T06:45:58.891Z,140
2016-08-04T06:46:59.847Z,155
2016-08-04T06:48:00.362Z,145
2016-08-04T06:49:00.274Z,165
2016-08-04T06:50:00.985Z,195
2016-08-04T06:51:00.990Z,215
2016-08-04T06:51:59.584Z,140
2016-08-04T06:52:58.884Z,100
2016-08-04T06:54:00.308Z,75
2016-08-04T06:55:14.476Z,60
2016-08-04T06:56:01.631Z,55
2016-08-04T06:57:00.320Z,55
2016-08-04T06:58:00.160Z,50
2016-08-04T06:59:00.338Z,50
2016-08-04T07:00:01.440Z,50
2016-08-04T07:01:00.335Z,50
2016-08-04T07:02:01.047Z,50
2016-08-04T07:02:59.646Z,50
2016-08-04T07:04:01.065Z,50
2016-08-04T07:05:01.065Z,50
2016-08-04T07:06:00.365Z,55
2016-08-04T07:07:02.177Z,55
2016-08-04T07:08:01.629Z,60
2016-08-04T07:09:00.524Z,70
2016-08-04T07:10:00.395Z,80
2016-08-04T07:11:01.861Z,75
2016-08-04T07:12:01.108Z,80
2016-08-04T07:13:00.454Z,90
2016-08-04T07:14:00.417Z,95
2016-08-04T07:15:01.122Z,110
2016-08-04T07:16:00.441Z,140
2016-08-04T07:17:01.842Z,135
2016-08-04T07:18:01.430Z,180
2016-08-04T07:19:00.431Z,260
2016-08-04T07:20:00.135Z,270
2016-08-04T07:21:00.444Z,290
2016-08-04T07:22:01.456Z,265
2016-08-04T07:23:01.874Z,430
2016-08-04T07:24:00.525Z,385
2016-08-04T07:25:01.882Z,355
2016-08-04T07:26:01.889Z,375
2016-08-04T07:26:59.770Z,415
2016-08-04T07:28:01.196Z,310
2016-08-04T07:29:01.763Z,290
2016-08-04T07:30:00.191Z,285
2016-08-04T07:31:03.966Z,190
2016-08-04T07:32:00.151Z,165
2016-08-04T07:33:02.372Z,150
2016-08-04T07:34:02.447Z,140
2016-08-04T07:35:00.894Z,140
2016-08-04T07:36:01.342Z,145
2016-08-04T07:37:01.966Z,140
2016-08-04T07:38:01.957Z,145
2016-08-04T07:39:00.546Z,140
2016-08-04T07:39:59.852Z,135
2016-08-04T07:41:00.612Z,135
2016-08-04T07:42:00.261Z,120
2016-08-04T07:43:00.571Z,110
2016-08-04T07:44:02.293Z,120
2016-08-04T07:45:01.303Z,125
2016-08-04T07:46:01.360Z,130
2016-08-04T07:47:00.600Z,130
2016-08-04T07:48:00.602Z,130
2016-08-04T07:49:02.094Z,125
2016-08-04T07:50:00.619Z,115
2016-08-04T07:51:01.335Z,125
2016-08-04T07:51:59.919Z,135
2016-08-04T07:53:00.684Z,135
2016-08-04T07:54:02.057Z,145
2016-08-04T07:55:01.753Z,150
2016-08-04T07:56:00.650Z,150
2016-08-04T07:57:02.346Z,150
2016-08-04T07:58:02.134Z,135
2016-08-04T07:59:00.672Z,120
2016-08-04T08:00:01.476Z,125
2016-08-04T08:01:01.401Z,125
2016-08-04T08:01:59.985Z,125
2016-08-04T08:03:01.400Z,120
2016-08-04T08:04:00.703Z,125
2016-08-04T08:05:00.700Z,125
2016-08-04T08:06:04.461Z,120
2016-08-04T08:07:00.765Z,115
2016-08-04T08:08:00.011Z,110
2016-08-04T08:08:59.306Z,110
2016-08-04T08:10:00.737Z,110
2016-08-04T08:11:00.787Z,115
2016-08-04T08:12:00.038Z,120
2016-08-04T08:13:01.508Z,125
2016-08-04T08:14:01.515Z,130
2016-08-04T08:15:00.764Z,135
2016-08-04T08:16:00.775Z,135
2016-08-04T08:17:01.827Z,135
2016-08-04T08:18:00.828Z,130
2016-08-04T08:19:00.782Z,125
2016-08-04T08:20:01.147Z,125
2016-08-04T08:21:00.809Z,125
2016-08-04T08:22:01.521Z,120
2016-08-04T08:23:00.107Z,115
2016-08-04T08:24:00.824Z,115
2016-08-04T08:25:00.811Z,105
2016-08-04T08:26:00.882Z,105
2016-08-04T08:27:00.826Z,100
2016-08-04T08:28:01.836Z,90
2016-08-04T08:29:00.284Z,85
2016-08-04T08:30:00.898Z,80
2016-08-04T08:31:01.608Z,85
2016-08-04T08:32:00.857Z,80
2016-08-04T08:33:02.286Z,80
2016-08-04T08:34:01.072Z,80
2016-08-04T08:35:00.878Z,80
2016-08-04T08:36:01.593Z,80
2016-08-04T08:37:00.898Z,75
2016-08-04T08:38:02.311Z,75
2016-08-04T08:39:01.797Z,75
2016-08-04T08:40:02.321Z,75
2016-08-04T08:41:01.815Z,75
2016-08-04T08:42:01.667Z,75
2016-08-04T08:43:00.921Z,75
2016-08-04T08:44:00.926Z,75
2016-08-04T08:45:00.979Z,75
2016-08-04T08:46:02.358Z,75
2016-08-04T08:47:01.651Z,75
2016-08-04T08:48:01.657Z,80
2016-08-04T08:49:01.820Z,75
2016-08-04T08:50:00.269Z,75
2016-08-04T08:51:02.428Z,75
2016-08-04T08:52:01.727Z,70
2016-08-04T08:53:00.974Z,70
2016-08-04T08:54:03.043Z,65
2016-08-04T08:55:01.753Z,65
2016-08-04T08:56:01.006Z,65
2016-08-04T08:57:01.000Z,70
2016-08-04T08:58:01.768Z,75
2016-08-04T08:59:01.720Z,80
2016-08-04T08:59:59.606Z,80
2016-08-04T09:01:02.678Z,85
2016-08-04T09:02:01.030Z,85
2016-08-04T09:03:01.233Z,75
2016-08-04T09:04:01.795Z,80
2016-08-04T09:05:02.805Z,80
2016-08-04T09:06:01.051Z,80
2016-08-04T09:07:01.068Z,85
2016-08-04T09:07:59.694Z,85
2016-08-04T09:09:01.774Z,85
2016-08-04T09:10:01.784Z,80
2016-08-04T09:11:00.367Z,75
2016-08-04T09:12:02.637Z,85
2016-08-04T09:13:01.102Z,95
2016-08-04T09:14:01.913Z,95
2016-08-04T09:15:01.203Z,100
2016-08-04T09:16:03.287Z,105
2016-08-04T09:17:01.118Z,110
2016-08-04T09:18:01.115Z,120
2016-08-04T09:19:00.423Z,125
2016-08-04T09:20:00.473Z,125
2016-08-04T09:21:01.139Z,130
2016-08-04T09:22:00.429Z,125
2016-08-04T09:23:01.140Z,110
2016-08-04T09:24:00.441Z,110
2016-08-04T09:25:01.603Z,110
2016-08-04T09:26:01.213Z,110
2016-08-04T09:27:02.928Z,105
2016-08-04T09:28:01.881Z,110
2016-08-04T09:29:01.889Z,120
2016-08-04T09:29:59.768Z,120
2016-08-04T09:31:01.693Z,125
2016-08-04T09:32:01.199Z,130
2016-08-04T09:33:00.499Z,125
2016-08-04T09:34:01.966Z,120
2016-08-04T09:35:01.258Z,115
2016-08-04T09:36:02.338Z,130
2016-08-04T09:37:00.570Z,135
2016-08-04T09:38:01.281Z,125
2016-08-04T09:39:00.532Z,110
2016-08-04T09:40:00.631Z,90
2016-08-04T09:41:00.815Z,95
2016-08-04T09:42:01.971Z,90
2016-08-04T09:43:00.600Z,85
2016-08-04T09:44:01.276Z,80
2016-08-04T09:45:02.692Z,85
2016-08-04T09:46:01.331Z,75
2016-08-04T09:47:02.492Z,65
2016-08-04T09:48:02.020Z,60
2016-08-04T09:49:03.236Z,60
2016-08-04T09:50:02.008Z,70
2016-08-04T09:51:02.369Z,70
2016-08-04T09:52:00.211Z,75
2016-08-04T09:53:02.138Z,80
2016-08-04T09:54:01.329Z,90
2016-08-04T09:55:00.639Z,90
2016-08-04T09:56:00.634Z,90
2016-08-04T09:57:02.048Z,85
2016-08-04T09:58:03.191Z,80
2016-08-04T09:59:01.357Z,65
2016-08-04T10:00:03.800Z,70
2016-08-04T10:01:00.664Z,75
2016-08-04T10:02:02.273Z,70
2016-08-04T10:03:02.797Z,70
2016-08-04T10:04:01.392Z,75
2016-08-04T10:05:02.093Z,70
2016-08-04T10:06:01.403Z,70
2016-08-04T10:08:00.701Z,70
2016-08-04T10:09:01.861Z,70
2016-08-04T10:10:02.170Z,70
2016-08-04T10:11:01.471Z,80
2016-08-04T10:12:01.426Z,90
2016-08-04T10:13:01.826Z,85
2016-08-04T10:14:01.490Z,85
2016-08-04T10:15:01.492Z,85
2016-08-04T10:16:01.447Z,80
2016-08-04T10:17:02.162Z,80
2016-08-04T10:18:02.177Z,75
2016-08-04T10:19:01.534Z,80
2016-08-04T10:20:02.233Z,80
2016-08-04T10:21:02.184Z,80
2016-08-04T10:23:01.537Z,85
2016-08-04T10:24:02.118Z,65
2016-08-04T10:25:00.086Z,70
2016-08-04T10:26:03.586Z,70
2016-08-04T10:27:00.866Z,75
2016-08-04T10:28:17.601Z,75
2016-08-04T10:29:01.521Z,75
2016-08-04T10:30:02.235Z,80
2016-08-04T10:31:02.962Z,80
2016-08-04T10:32:02.251Z,75
2016-08-04T10:33:04.063Z,65
2016-08-04T10:34:01.551Z,60
2016-08-04T10:35:03.242Z,60
2016-08-04T10:36:01.591Z,70
2016-08-04T10:37:03.989Z,75
2016-08-04T10:38:00.916Z,75
2016-08-04T10:39:01.726Z,70
2016-08-04T10:40:01.585Z,70
2016-08-04T10:41:03.115Z,65
2016-08-04T10:42:03.010Z,60
2016-08-04T10:43:00.894Z,55
2016-08-04T10:44:02.346Z,55
2016-08-04T10:45:00.909Z,55
2016-08-04T10:46:02.521Z,60
2016-08-04T10:47:01.733Z,60
2016-08-04T10:48:02.341Z,65
2016-08-04T10:49:02.345Z,65
2016-08-04T10:50:02.348Z,70
2016-08-04T10:51:02.350Z,75
2016-08-04T10:52:01.654Z,75
2016-08-04T10:53:01.714Z,75
2016-08-04T10:54:00.257Z,70
2016-08-04T10:55:02.693Z,70
2016-08-04T10:56:02.389Z,75
2016-08-04T10:57:03.310Z,70
2016-08-04T10:58:00.275Z,75
2016-08-04T10:59:03.093Z,75
2016-08-04T11:00:02.413Z,75
2016-08-04T11:01:01.757Z,70
2016-08-04T11:02:02.419Z,70
2016-08-04T11:03:03.353Z,70
2016-08-04T11:04:02.439Z,60
2016-08-04T11:05:02.491Z,70
2016-08-04T11:06:01.035Z,80
2016-08-04T11:07:01.031Z,80
2016-08-04T11:08:04.118Z,80
2016-08-04T11:09:03.213Z,80
2016-08-04T11:10:03.392Z,85
2016-08-04T11:11:01.764Z,85
2016-08-04T11:12:01.060Z,85
2016-08-04T11:13:01.777Z,80
2016-08-04T11:14:01.082Z,75
2016-08-04T11:15:03.206Z,70
2016-08-04T11:16:03.202Z,65
2016-08-04T11:17:01.090Z,65
2016-08-04T11:18:02.562Z,60
2016-08-04T11:19:02.317Z,60
2016-08-04T11:20:01.860Z,60
2016-08-04T11:21:03.933Z,65
2016-08-04T11:22:01.118Z,70
2016-08-04T11:23:02.232Z,80
2016-08-04T11:24:02.563Z,80
2016-08-04T11:25:02.143Z,85
2016-08-04T11:26:02.049Z,80
2016-08-04T11:27:01.863Z,75
2016-08-04T11:28:01.302Z,75
2016-08-04T11:29:02.683Z,85
2016-08-04T11:30:03.073Z,75
2016-08-04T11:31:04.064Z,70
2016-08-04T11:32:01.962Z,70
2016-08-04T11:33:01.941Z,75
2016-08-04T11:34:02.500Z,75
2016-08-04T11:35:01.393Z,70
2016-08-04T11:36:02.618Z,65
2016-08-04T11:37:02.153Z,70
2016-08-04T11:38:01.927Z,70
2016-08-04T11:39:01.219Z,70
2016-08-04T11:40:02.692Z,75
2016-08-04T11:41:03.147Z,75
2016-08-04T11:42:01.944Z,85
2016-08-04T11:43:03.825Z,90
2016-08-04T11:44:01.955Z,95
2016-08-04T11:45:02.393Z,100
2016-08-04T11:46:02.679Z,100
2016-08-04T11:47:02.075Z,100
2016-08-04T11:48:00.613Z,95
2016-08-04T11:49:02.755Z,95
2016-08-04T11:50:02.700Z,95
2016-08-04T11:51:02.310Z,95
2016-08-04T11:52:02.002Z,90
2016-08-04T11:53:02.113Z,90
2016-08-04T11:54:03.453Z,90
2016-08-04T11:55:02.022Z,85
2016-08-04T11:56:03.465Z,85
2016-08-04T11:57:02.105Z,85
2016-08-04T11:58:02.797Z,85
2016-08-04T11:59:01.392Z,80
2016-08-04T12:00:03.555Z,80
2016-08-04T12:01:03.643Z,75
2016-08-04T12:02:02.769Z,75
2016-08-04T12:03:00.657Z,75
2016-08-04T12:04:03.484Z,70
2016-08-04T12:05:02.898Z,70
2016-08-04T12:06:02.173Z,65
2016-08-04T12:07:02.345Z,55
2016-08-04T12:08:02.806Z,55
2016-08-04T12:09:03.371Z,55
2016-08-04T12:10:02.109Z,55
2016-08-04T12:11:02.122Z,60
2016-08-04T12:12:02.293Z,70
2016-08-04T12:13:01.422Z,70
2016-08-04T12:14:02.885Z,75
2016-08-04T12:15:02.893Z,75
2016-08-04T12:16:03.999Z,75
2016-08-04T12:17:03.615Z,75
2016-08-04T12:18:02.863Z,75
2016-08-04T12:19:00.807Z,75
2016-08-04T12:20:03.118Z,70
2016-08-04T12:21:02.290Z,70
2016-08-04T12:22:03.054Z,65
2016-08-04T12:23:02.887Z,65
2016-08-04T12:24:01.482Z,60
2016-08-04T12:25:02.905Z,60
2016-08-04T12:26:02.905Z,60
2016-08-04T12:27:03.148Z,65
2016-08-04T12:28:02.256Z,65
2016-08-04T12:29:02.326Z,65
2016-08-04T12:30:02.944Z,65
2016-08-04T12:31:02.223Z,65
2016-08-04T12:32:02.234Z,65
2016-08-04T12:33:02.240Z,65
2016-08-04T12:34:01.642Z,65
2016-08-04T12:35:02.954Z,65
2016-08-04T12:36:01.547Z,65
2016-08-04T12:37:02.267Z,65
2016-08-04T12:38:03.219Z,65
2016-08-04T12:39:03.031Z,65
2016-08-04T12:40:04.543Z,65
2016-08-04T12:41:17.212Z,65
2016-08-04T12:42:03.312Z,65
2016-08-04T12:43:03.005Z,65
2016-08-04T12:44:02.295Z,65
2016-08-04T12:45:02.351Z,65
2016-08-04T12:46:03.065Z,60
2016-08-04T12:47:02.327Z,60
2016-08-04T12:48:02.330Z,60
2016-08-04T12:49:01.614Z,60
2016-08-04T12:50:03.071Z,60
2016-08-04T12:51:02.843Z,60
2016-08-04T12:52:03.884Z,60
2016-08-04T12:53:04.205Z,60
2016-08-04T12:54:02.358Z,60
2016-08-04T12:55:00.940Z,60
2016-08-04T12:56:02.419Z,65
2016-08-04T12:57:03.786Z,65
2016-08-04T12:58:03.880Z,70
2016-08-04T12:59:02.477Z,70
2016-08-04T13:00:02.432Z,75
2016-08-04T13:01:04.153Z,80
2016-08-04T13:02:02.580Z,85
2016-08-04T13:03:02.409Z,95
2016-08-04T13:04:03.941Z,100
2016-08-04T13:05:02.417Z,100
2016-08-04T13:06:04.375Z,100
2016-08-04T13:07:02.439Z,95
2016-08-04T13:08:01.723Z,90
2016-08-04T13:09:03.148Z,80
2016-08-04T13:10:01.791Z,80
2016-08-04T13:11:03.944Z,70
2016-08-04T13:12:02.455Z,70
2016-08-04T13:13:03.257Z,65
2016-08-04T13:14:02.520Z,60
2016-08-04T13:15:04.055Z,55
2016-08-04T13:16:03.185Z,55
2016-08-04T13:17:03.242Z,55
2016-08-04T13:18:01.124Z,55
2016-08-04T13:19:03.250Z,55
2016-08-04T13:20:03.918Z,55
2016-08-04T13:21:03.216Z,55
2016-08-04T13:22:03.218Z,50
2016-08-04T13:23:03.274Z,50
2016-08-04T13:24:02.922Z,55
2016-08-04T13:25:03.238Z,55
2016-08-04T13:26:04.363Z,55
2016-08-04T13:27:01.842Z,55
2016-08-04T13:28:03.751Z,60
2016-08-04T13:29:03.257Z,60
2016-08-04T13:30:02.614Z,70
2016-08-04T13:31:02.565Z,75
2016-08-04T13:32:02.579Z,80
2016-08-04T13:33:03.336Z,80
2016-08-04T13:34:01.878Z,80
2016-08-04T13:35:02.231Z,75
2016-08-04T13:37:02.605Z,80
2016-08-04T13:38:04.022Z,80
2016-08-04T13:39:03.581Z,80
2016-08-04T13:40:02.618Z,80
2016-08-04T13:41:03.325Z,80
2016-08-04T13:42:03.335Z,75
2016-08-04T13:43:04.063Z,75
2016-08-04T13:44:02.694Z,70
2016-08-04T13:45:02.642Z,65
2016-08-04T13:46:02.664Z,65
2016-08-04T13:47:02.658Z,65
2016-08-04T13:48:03.986Z,65
2016-08-04T13:49:01.252Z,65
2016-08-04T13:50:03.228Z,65
2016-08-04T13:51:02.683Z,60
2016-08-04T13:52:04.496Z,60
2016-08-04T13:53:02.014Z,60
2016-08-04T13:54:03.422Z,60
2016-08-04T13:55:03.415Z,60
2016-08-04T13:56:02.753Z,60
2016-08-04T13:57:02.721Z,55
2016-08-04T13:58:02.718Z,55
2016-08-04T13:59:04.260Z,55
2016-08-04T14:00:02.778Z,55
2016-08-04T14:01:04.108Z,55
2016-08-04T14:02:02.737Z,55
2016-08-04T14:03:02.753Z,60
2016-08-04T14:04:02.804Z,60
2016-08-04T14:05:01.398Z,60
2016-08-04T14:06:02.761Z,60
2016-08-04T14:07:03.481Z,60
2016-08-04T14:08:02.098Z,60
2016-08-04T14:09:02.782Z,55
2016-08-04T14:10:02.809Z,55
2016-08-04T14:11:01.432Z,60
2016-08-04T14:12:03.349Z,55
2016-08-04T14:13:02.808Z,55
2016-08-04T14:14:04.739Z,55
2016-08-04T14:15:02.162Z,60
2016-08-04T14:16:02.821Z,60
2016-08-04T14:17:02.166Z,60
2016-08-04T14:18:02.883Z,60
2016-08-04T14:19:02.845Z,60
2016-08-04T14:20:03.558Z,60
2016-08-04T14:21:03.616Z,65
2016-08-04T14:22:02.160Z,65
2016-08-04T14:24:03.575Z,70
2016-08-04T14:25:02.516Z,70
2016-08-04T14:26:03.584Z,65
2016-08-04T14:27:03.594Z,65